createdAt,value
2023-03-27T00:00:24.406Z,58.49
2023-03-27T00:04:24.787Z,59.68
2023-03-27T00:08:24.823Z,59.48
2023-03-27T00:12:25.303Z,58.77
2023-03-27T00:16:25.174Z,59.20
2023-03-27T00:20:25.500Z,58.72
2023-03-27T00:24:25.955Z,57.21
2023-03-27T00:28:25.749Z,56.61
2023-03-27T00:32:26.324Z,56.94
2023-03-27T00:36:26.259Z,57.07
2023-03-27T00:40:26.330Z,57.37
2023-03-27T00:44:26.883Z,58.09
2023-03-27T00:48:26.842Z,59.96
2023-03-27T00:52:26.741Z,60.45
2023-03-27T00:56:27.418Z,60.34
2023-03-27T01:00:27.124Z,60.46
2023-03-27T01:04:27.434Z,59.92
2023-03-27T01:08:27.054Z,59.65
2023-03-27T01:12:26.982Z,59.32
2023-03-27T01:16:27.406Z,58.76
2023-03-27T01:20:26.974Z,58.27
2023-03-27T01:24:27.360Z,58.23
2023-03-27T01:28:27.323Z,58.08
2023-03-27T01:32:26.959Z,59.13
2023-03-27T01:36:26.860Z,59.57
2023-03-27T01:40:27.087Z,59.14
2023-03-27T01:44:27.404Z,58.82
2023-03-27T01:48:28.151Z,58.57
2023-03-27T01:52:27.321Z,59.01
2023-03-27T01:56:27.285Z,60.59
2023-03-27T02:00:27.307Z,60.31
2023-03-27T02:04:28.288Z,60.37
2023-03-27T02:08:27.349Z,59.77
2023-03-27T02:12:27.222Z,61.04
2023-03-27T02:16:27.195Z,61.22
2023-03-27T02:20:27.349Z,60.94
2023-03-27T02:24:27.086Z,60.56
2023-03-27T02:28:27.086Z,59.80
2023-03-27T02:32:27.124Z,59.91
2023-03-27T02:36:27.009Z,59.08
2023-03-27T02:40:27.195Z,58.50
2023-03-27T02:44:27.434Z,58.23
2023-03-27T02:48:26.958Z,58.25
2023-03-27T02:52:26.937Z,58.61
2023-03-27T02:56:27.160Z,57.86
2023-03-27T03:00:26.977Z,56.55
2023-03-27T03:04:26.921Z,56.64
2023-03-27T03:08:27.089Z,56.25
2023-03-27T03:12:27.911Z,56.79
2023-03-27T03:16:27.002Z,56.84
2023-03-27T03:20:26.926Z,57.20
2023-03-27T03:24:26.734Z,56.58
2023-03-27T03:28:26.671Z,56.85
2023-03-27T03:32:26.915Z,57.00
2023-03-27T03:36:26.840Z,57.29
2023-03-27T03:40:26.867Z,57.36
2023-03-27T03:44:26.462Z,57.47
2023-03-27T03:48:26.882Z,56.97
2023-03-27T03:52:26.837Z,56.76
2023-03-27T03:56:26.951Z,56.08
2023-03-27T04:00:26.908Z,54.93
2023-03-27T04:04:26.467Z,54.93
2023-03-27T04:08:26.926Z,55.03
2023-03-27T04:12:26.878Z,56.18
2023-03-27T04:16:26.725Z,56.52
2023-03-27T04:20:26.772Z,56.11
2023-03-27T04:24:26.845Z,56.49
2023-03-27T04:28:26.810Z,56.55
2023-03-27T04:32:26.938Z,56.33
2023-03-27T04:36:28.483Z,56.36
2023-03-27T04:40:26.975Z,56.60
2023-03-27T04:44:27.394Z,57.32
2023-03-27T04:48:26.927Z,57.28
2023-03-27T04:52:26.861Z,56.86
2023-03-27T04:56:26.834Z,57.08
2023-03-27T05:00:26.862Z,57.57
2023-03-27T05:04:26.818Z,57.63
2023-03-27T05:08:26.721Z,57.99
2023-03-27T05:12:26.686Z,57.75
2023-03-27T05:16:26.663Z,57.96
2023-03-27T05:20:26.706Z,58.75
2023-03-27T05:24:26.761Z,58.28
2023-03-27T05:28:26.637Z,58.78
2023-03-27T05:32:26.912Z,59.04
2023-03-27T05:45:06.270Z,58.23
2023-03-27T05:49:06.519Z,58.45
2023-03-27T05:53:06.548Z,59.61
2023-03-27T05:57:06.217Z,60.20
2023-03-27T06:01:06.552Z,60.71
2023-03-27T06:05:06.519Z,59.82
2023-03-27T06:09:06.098Z,59.70
2023-03-27T06:13:06.550Z,60.10
2023-03-27T06:17:06.013Z,58.64
2023-03-27T06:21:06.011Z,59.68
2023-03-27T06:25:06.059Z,59.36
2023-03-27T06:29:08.162Z,60.35
2023-03-27T06:33:06.569Z,59.38
2023-03-27T06:37:06.046Z,59.33
2023-03-27T06:41:06.020Z,59.22
2023-03-27T06:45:06.109Z,58.71
2023-03-27T06:49:06.056Z,59.31
2023-03-27T06:53:09.988Z,60.42
2023-03-27T06:57:06.896Z,58.93
2023-03-27T07:01:06.036Z,58.88
2023-03-27T07:05:05.803Z,58.34
2023-03-27T07:09:06.166Z,58.21
2023-03-27T07:13:05.972Z,57.93
2023-03-27T07:17:08.099Z,58.24
2023-03-27T07:21:06.190Z,57.95
2023-03-27T07:25:05.853Z,57.79
2023-03-27T07:29:06.127Z,58.13
2023-03-27T07:33:06.656Z,57.75
2023-03-27T07:37:06.045Z,58.22
2023-03-27T07:41:06.120Z,57.19
2023-03-27T07:45:06.124Z,57.63
2023-03-27T07:49:05.736Z,56.98
2023-03-27T07:53:05.609Z,57.22
2023-03-27T07:57:06.237Z,57.49
2023-03-27T08:01:05.527Z,58.27
2023-03-27T08:05:05.802Z,58.15
2023-03-27T08:09:05.481Z,57.31
2023-03-27T08:13:05.525Z,57.08
2023-03-27T08:17:15.145Z,57.24
2023-03-27T08:21:06.397Z,57.34
2023-03-27T08:25:05.321Z,57.18
2023-03-27T08:29:05.275Z,56.79
2023-03-27T08:33:05.328Z,56.75
2023-03-27T08:37:05.424Z,56.93
2023-03-27T08:41:05.447Z,56.07
2023-03-27T08:45:05.513Z,57.49
2023-03-27T08:49:05.647Z,57.64
2023-03-27T08:53:05.769Z,57.88
2023-03-27T08:57:05.951Z,56.96
2023-03-27T09:01:05.978Z,56.22
2023-03-27T09:05:06.111Z,56.13
2023-03-27T09:09:06.286Z,55.85
2023-03-27T09:13:06.589Z,56.67
2023-03-27T09:17:06.661Z,56.73
2023-03-27T09:21:06.535Z,56.71
2023-03-27T09:25:06.706Z,56.97
2023-03-27T09:29:06.639Z,55.84
2023-03-27T09:33:06.798Z,55.21
2023-03-27T09:37:06.750Z,54.59
2023-03-27T09:41:06.775Z,54.60
2023-03-27T09:45:06.900Z,54.70
2023-03-27T09:49:06.825Z,54.84
2023-03-27T09:53:06.792Z,54.92
2023-03-27T09:57:06.826Z,54.88
2023-03-27T10:01:06.744Z,54.05
2023-03-27T10:05:06.700Z,55.30
2023-03-27T10:09:06.676Z,55.14
2023-03-27T10:13:07.098Z,55.72
2023-03-27T10:17:07.080Z,53.73
2023-03-27T10:21:06.553Z,50.92
2023-03-27T10:25:06.604Z,52.47
2023-03-27T10:29:06.496Z,51.64
2023-03-27T10:33:07.128Z,48.55
2023-03-27T10:37:07.071Z,51.74
2023-03-27T10:41:07.047Z,50.50
2023-03-27T10:45:07.560Z,48.28
2023-03-27T10:49:07.578Z,49.53
2023-03-27T10:53:07.647Z,54.20
2023-03-27T10:57:07.632Z,57.26
2023-03-27T11:01:07.594Z,57.78
2023-03-27T11:05:07.696Z,57.99
2023-03-27T11:09:07.692Z,57.44
2023-03-27T11:13:08.065Z,56.97
2023-03-27T11:17:08.195Z,57.83
2023-03-27T11:21:07.877Z,58.17
2023-03-27T11:25:08.093Z,58.88
2023-03-27T11:29:08.164Z,59.86
2023-03-27T11:33:08.674Z,58.52
2023-03-27T11:37:08.326Z,58.43
2023-03-27T11:41:08.680Z,58.65
2023-03-27T11:45:09.112Z,58.73
2023-03-27T11:49:09.047Z,58.81
2023-03-27T11:53:09.070Z,58.77
2023-03-27T11:57:08.706Z,58.88
2023-03-27T12:01:08.567Z,58.93
2023-03-27T12:05:08.579Z,58.54
2023-03-27T12:09:08.450Z,59.99
2023-03-27T12:13:08.589Z,59.18
2023-03-27T12:17:08.403Z,57.68
2023-03-27T12:21:09.109Z,55.86
2023-03-27T12:25:09.119Z,56.38
2023-03-27T12:29:23.374Z,57.01
2023-03-27T12:33:09.777Z,58.07
2023-03-27T12:37:08.669Z,53.29
2023-03-27T12:41:09.077Z,47.77
2023-03-27T12:45:09.136Z,54.11
2023-03-27T12:49:09.646Z,55.95
2023-03-27T12:53:09.341Z,55.46
2023-03-27T12:57:09.749Z,54.58
2023-03-27T13:01:19.610Z,55.61
2023-03-27T13:05:24.091Z,57.18
2023-03-27T13:09:10.612Z,57.74
2023-03-27T13:13:09.185Z,58.00
2023-03-27T13:17:09.623Z,57.20
2023-03-27T13:21:09.136Z,57.75
2023-03-27T13:25:09.618Z,57.76
2023-03-27T13:29:09.643Z,47.75
2023-03-27T13:33:09.492Z,45.58
2023-03-27T13:37:09.682Z,52.70
2023-03-27T13:41:09.827Z,53.45
2023-03-27T13:45:10.104Z,55.50
2023-03-27T13:49:09.931Z,42.22
2023-03-27T13:53:10.140Z,43.53
2023-03-27T13:57:10.182Z,51.80
2023-03-27T14:01:10.621Z,48.17
2023-03-27T14:05:10.255Z,45.04
2023-03-27T14:09:10.189Z,44.12
2023-03-27T14:13:11.092Z,42.29
2023-03-27T14:17:10.116Z,41.37
2023-03-27T14:21:10.114Z,40.19
2023-03-27T14:25:10.125Z,39.15
2023-03-27T14:29:10.010Z,41.44
2023-03-27T14:33:10.199Z,42.94
2023-03-27T14:37:10.162Z,41.26
2023-03-27T14:41:09.980Z,40.59
2023-03-27T14:45:10.609Z,40.66
2023-03-27T14:49:10.344Z,46.04
2023-03-27T14:53:10.634Z,45.14
2023-03-27T14:57:10.694Z,48.82
2023-03-27T15:01:10.594Z,49.93
2023-03-27T15:05:10.828Z,50.45
2023-03-27T15:09:11.109Z,49.07
2023-03-27T15:13:11.238Z,49.69
2023-03-27T15:17:11.144Z,50.33
2023-03-27T15:21:10.688Z,52.31
2023-03-27T15:25:10.649Z,52.29
2023-03-27T15:29:10.622Z,52.44
2023-03-27T15:33:10.653Z,53.59
2023-03-27T15:37:10.637Z,53.28
2023-03-27T15:41:10.496Z,52.35
2023-03-27T15:45:10.482Z,52.24
2023-03-27T15:49:10.422Z,53.09
2023-03-27T15:53:10.677Z,53.66
2023-03-27T15:57:11.720Z,52.82
2023-03-27T16:01:18.065Z,53.17
2023-03-27T16:05:11.275Z,54.17
2023-03-27T16:09:10.668Z,53.73
2023-03-27T16:13:10.602Z,51.34
2023-03-27T16:17:11.150Z,47.38
2023-03-27T16:21:10.996Z,47.63
2023-03-27T16:25:12.761Z,50.14
2023-03-27T16:29:11.241Z,52.24
2023-03-27T16:33:12.339Z,51.83
2023-03-27T16:37:11.682Z,52.25
2023-03-27T16:41:11.342Z,51.95
2023-03-27T16:45:11.661Z,46.60
2023-03-27T16:49:11.544Z,49.66
2023-03-27T16:53:11.654Z,47.73
2023-03-27T16:57:11.702Z,50.28
2023-03-27T17:01:11.843Z,49.69
2023-03-27T17:05:12.233Z,49.05
2023-03-27T17:09:12.139Z,49.67
2023-03-27T17:13:11.698Z,48.56
2023-03-27T17:17:12.175Z,49.14
2023-03-27T17:21:11.634Z,48.34
2023-03-27T17:25:11.685Z,48.73
2023-03-27T17:29:11.669Z,49.51
2023-03-27T17:33:11.559Z,49.30
2023-03-27T17:37:11.698Z,49.17
2023-03-27T17:41:11.446Z,48.64
2023-03-27T17:45:11.728Z,48.72
2023-03-27T17:49:11.686Z,48.70
2023-03-27T17:53:11.679Z,48.16
2023-03-27T17:57:11.347Z,46.91
2023-03-27T18:01:11.745Z,47.93
2023-03-27T18:05:11.395Z,48.45
2023-03-27T18:09:11.683Z,47.75
2023-03-27T18:13:11.294Z,47.08
2023-03-27T18:17:11.356Z,47.55
2023-03-27T18:21:11.675Z,47.65
2023-03-27T18:25:11.512Z,48.42
2023-03-27T18:29:11.726Z,48.94
2023-03-27T18:33:11.732Z,48.85
2023-03-27T18:37:11.577Z,48.54
2023-03-27T18:41:11.679Z,47.71
2023-03-27T18:45:11.778Z,47.91
2023-03-27T18:49:23.493Z,47.43
2023-03-27T18:53:13.203Z,48.03
2023-03-27T18:57:11.831Z,48.74
2023-03-27T19:01:12.238Z,49.28
2023-03-27T19:05:12.205Z,47.55
2023-03-27T19:09:12.194Z,44.55
2023-03-27T19:13:12.132Z,44.65
2023-03-27T19:17:12.323Z,45.46
2023-03-27T19:21:12.715Z,45.04
2023-03-27T19:25:12.706Z,46.93
2023-03-27T19:29:12.721Z,44.63
2023-03-27T19:33:12.581Z,46.80
2023-03-27T19:37:12.672Z,43.79
2023-03-27T19:41:13.231Z,41.92
2023-03-27T19:45:13.215Z,43.10
2023-03-27T19:49:15.209Z,43.34
2023-03-27T19:53:12.993Z,42.77
2023-03-27T19:57:13.049Z,40.94
2023-03-27T20:01:13.188Z,42.11
2023-03-27T20:05:12.881Z,41.67
2023-03-27T20:09:13.212Z,41.83
2023-03-27T20:13:12.823Z,43.08
2023-03-27T20:21:13.224Z,47.47
2023-03-27T20:25:13.224Z,47.34
2023-03-27T20:29:13.040Z,47.70
2023-03-27T20:33:13.712Z,47.19
2023-03-27T20:37:13.726Z,46.65
2023-03-27T20:41:13.242Z,45.23
2023-03-27T20:45:13.257Z,46.04
2023-03-27T20:49:13.118Z,45.49
2023-03-27T20:53:13.084Z,46.97
2023-03-27T20:57:13.258Z,47.55
2023-03-27T21:01:13.272Z,49.85
2023-03-27T21:05:13.208Z,52.93
2023-03-27T21:09:12.900Z,54.55
2023-03-27T21:13:13.250Z,54.94
2023-03-27T21:17:13.230Z,55.88
2023-03-27T21:21:13.237Z,57.60
2023-03-27T21:25:13.242Z,58.31
2023-03-27T21:29:13.175Z,58.32
2023-03-27T21:33:13.406Z,58.80
2023-03-27T21:37:13.789Z,59.55
2023-03-27T21:41:14.196Z,60.07
2023-03-27T21:45:14.290Z,60.73
2023-03-27T21:49:13.745Z,61.28
2023-03-27T21:53:13.736Z,61.17
2023-03-27T21:57:13.770Z,61.16
2023-03-27T22:01:13.793Z,61.29
2023-03-27T22:05:13.593Z,61.32
2023-03-27T22:09:13.571Z,60.79
2023-03-27T22:13:13.739Z,60.69
2023-03-27T22:17:13.767Z,60.37
2023-03-27T22:21:13.819Z,59.86
2023-03-27T22:25:13.488Z,61.04
2023-03-27T22:29:13.758Z,61.99
2023-03-27T22:33:13.800Z,61.04
2023-03-27T22:37:13.757Z,61.06
2023-03-27T22:41:13.800Z,60.13
2023-03-27T22:45:13.273Z,59.22
2023-03-27T22:49:13.224Z,58.97
2023-03-27T22:53:13.233Z,58.18
2023-03-27T22:57:13.302Z,58.63
2023-03-27T23:01:13.280Z,58.79
2023-03-27T23:05:13.202Z,58.21
2023-03-27T23:09:13.261Z,58.21
2023-03-27T23:13:13.756Z,58.43
2023-03-27T23:17:13.411Z,58.61
2023-03-27T23:21:13.663Z,58.52
2023-03-27T23:25:13.660Z,58.28
2023-03-27T23:29:13.767Z,58.09
2023-03-27T23:33:13.737Z,59.61
2023-03-27T23:37:14.275Z,59.81
2023-03-27T23:41:13.863Z,60.65
2023-03-27T23:45:14.363Z,57.68
2023-03-27T23:49:14.259Z,58.75
2023-03-27T23:53:14.270Z,59.45
2023-03-27T23:57:14.395Z,59.57
